sensor_id;sensor_type;location;lat;lon;timestamp;temperature;humidity
77039;DHT22;65970;50.476;4.840;2023-05-02T00:00:03;12.00;49.20
77039;DHT22;65970;50.476;4.840;2023-05-02T00:05:04;12.00;51.00
77039;DHT22;65970;50.476;4.840;2023-05-02T00:10:05;12.00;48.90
77039;DHT22;65970;50.476;4.840;2023-05-02T00:15:06;12.00;49.00
77039;DHT22;65970;50.476;4.840;2023-05-02T00:20:07;12.00;54.00
77039;DHT22;65970;50.476;4.840;2023-05-02T00:25:08;12.00;54.10
77039;DHT22;65970;50.476;4.840;2023-05-02T00:30:08;11.90;53.00
77039;DHT22;65970;50.476;4.840;2023-05-02T00:35:09;12.00;53.60
77039;DHT22;65970;50.476;4.840;2023-05-02T00:40:10;12.00;56.20
77039;DHT22;65970;50.476;4.840;2023-05-02T00:45:10;11.90;56.40
77039;DHT22;65970;50.476;4.840;2023-05-02T00:50:11;11.90;56.80
77039;DHT22;65970;50.476;4.840;2023-05-02T00:55:11;11.80;55.10
77039;DHT22;65970;50.476;4.840;2023-05-02T01:00:12;11.90;56.50
77039;DHT22;65970;50.476;4.840;2023-05-02T01:05:27;11.90;55.20
77039;DHT22;65970;50.476;4.840;2023-05-02T01:15:37;12.10;57.60
77039;DHT22;65970;50.476;4.840;2023-05-02T01:20:40;12.10;57.50
77039;DHT22;65970;50.476;4.840;2023-05-02T01:26:03;12.20;59.80
77039;DHT22;65970;50.476;4.840;2023-05-02T01:31:05;12.20;58.60
77039;DHT22;65970;50.476;4.840;2023-05-02T01:36:06;12.30;62.40
77039;DHT22;65970;50.476;4.840;2023-05-02T01:41:07;12.40;60.20
77039;DHT22;65970;50.476;4.840;2023-05-02T01:46:08;12.40;59.20
77039;DHT22;65970;50.476;4.840;2023-05-02T01:51:09;12.40;60.10
77039;DHT22;65970;50.476;4.840;2023-05-02T01:56:11;12.50;58.70
77039;DHT22;65970;50.476;4.840;2023-05-02T02:01:11;12.50;58.60
77039;DHT22;65970;50.476;4.840;2023-05-02T02:06:12;12.60;60.40
77039;DHT22;65970;50.476;4.840;2023-05-02T02:11:15;12.60;60.20
77039;DHT22;65970;50.476;4.840;2023-05-02T02:16:18;12.60;59.30
77039;DHT22;65970;50.476;4.840;2023-05-02T02:21:20;12.60;58.70
77039;DHT22;65970;50.476;4.840;2023-05-02T02:26:22;12.70;59.80
77039;DHT22;65970;50.476;4.840;2023-05-02T02:31:23;12.70;60.90
77039;DHT22;65970;50.476;4.840;2023-05-02T02:36:23;12.70;63.30
77039;DHT22;65970;50.476;4.840;2023-05-02T02:41:31;12.70;62.10
77039;DHT22;65970;50.476;4.840;2023-05-02T02:46:33;12.70;63.50
77039;DHT22;65970;50.476;4.840;2023-05-02T02:51:37;12.80;64.40
77039;DHT22;65970;50.476;4.840;2023-05-02T02:56:39;12.70;62.20
77039;DHT22;65970;50.476;4.840;2023-05-02T03:01:42;12.70;61.20
77039;DHT22;65970;50.476;4.840;2023-05-02T03:06:45;12.70;60.30
77039;DHT22;65970;50.476;4.840;2023-05-02T03:11:46;12.70;60.70
77039;DHT22;65970;50.476;4.840;2023-05-02T03:16:46;12.80;63.00
77039;DHT22;65970;50.476;4.840;2023-05-02T03:21:47;12.80;63.80
77039;DHT22;65970;50.476;4.840;2023-05-02T03:26:47;12.80;62.90
77039;DHT22;65970;50.476;4.840;2023-05-02T03:31:48;12.80;63.10
77039;DHT22;65970;50.476;4.840;2023-05-02T03:36:48;12.80;63.10
77039;DHT22;65970;50.476;4.840;2023-05-02T03:41:48;12.80;66.10
77039;DHT22;65970;50.476;4.840;2023-05-02T03:46:49;12.80;66.30
77039;DHT22;65970;50.476;4.840;2023-05-02T03:51:49;12.80;66.70
77039;DHT22;65970;50.476;4.840;2023-05-02T03:56:50;12.80;66.10
77039;DHT22;65970;50.476;4.840;2023-05-02T04:01:50;12.80;66.50
77039;DHT22;65970;50.476;4.840;2023-05-02T04:06:51;12.80;65.90
77039;DHT22;65970;50.476;4.840;2023-05-02T04:11:51;12.70;66.30
77039;DHT22;65970;50.476;4.840;2023-05-02T04:16:51;12.70;65.50
77039;DHT22;65970;50.476;4.840;2023-05-02T04:21:52;12.70;65.20
77039;DHT22;65970;50.476;4.840;2023-05-02T04:26:53;12.70;66.70
77039;DHT22;65970;50.476;4.840;2023-05-02T04:31:53;12.70;65.40
77039;DHT22;65970;50.476;4.840;2023-05-02T04:36:54;12.60;64.10
77039;DHT22;65970;50.476;4.840;2023-05-02T04:41:54;12.60;64.20
77039;DHT22;65970;50.476;4.840;2023-05-02T04:46:54;12.60;66.00
77039;DHT22;65970;50.476;4.840;2023-05-02T04:51:55;12.60;64.70
77039;DHT22;65970;50.476;4.840;2023-05-02T04:56:55;12.60;66.40
77039;DHT22;65970;50.476;4.840;2023-05-02T05:01:56;12.70;66.70
77039;DHT22;65970;50.476;4.840;2023-05-02T05:06:56;12.70;65.40
77039;DHT22;65970;50.476;4.840;2023-05-02T05:11:56;12.60;65.30
77039;DHT22;65970;50.476;4.840;2023-05-02T05:16:57;12.60;66.90
77039;DHT22;65970;50.476;4.840;2023-05-02T05:21:57;12.60;66.10
77039;DHT22;65970;50.476;4.840;2023-05-02T05:26:58;12.60;65.50
77039;DHT22;65970;50.476;4.840;2023-05-02T05:31:58;12.50;63.90
77039;DHT22;65970;50.476;4.840;2023-05-02T05:36:59;12.50;65.20
77039;DHT22;65970;50.476;4.840;2023-05-02T05:41:59;12.60;67.00
77039;DHT22;65970;50.476;4.840;2023-05-02T05:47:00;12.60;65.10
77039;DHT22;65970;50.476;4.840;2023-05-02T05:52:00;12.60;64.10
77039;DHT22;65970;50.476;4.840;2023-05-02T05:57:01;12.60;64.20
77039;DHT22;65970;50.476;4.840;2023-05-02T06:02:01;12.60;64.30
77039;DHT22;65970;50.476;4.840;2023-05-02T06:07:02;12.70;65.10
77039;DHT22;65970;50.476;4.840;2023-05-02T06:12:02;12.60;63.70
77039;DHT22;65970;50.476;4.840;2023-05-02T06:17:03;12.60;63.80
77039;DHT22;65970;50.476;4.840;2023-05-02T06:22:03;12.70;64.00
77039;DHT22;65970;50.476;4.840;2023-05-02T06:27:03;12.70;63.40
77039;DHT22;65970;50.476;4.840;2023-05-02T06:32:04;12.80;63.70
77039;DHT22;65970;50.476;4.840;2023-05-02T06:37:04;12.80;65.00
77039;DHT22;65970;50.476;4.840;2023-05-02T07:28:38;12.90;63.90
77039;DHT22;65970;50.476;4.840;2023-05-02T07:33:38;12.90;64.50
77039;DHT22;65970;50.476;4.840;2023-05-02T07:38:39;12.90;64.30
77039;DHT22;65970;50.476;4.840;2023-05-02T07:43:39;12.90;64.30
77039;DHT22;65970;50.476;4.840;2023-05-02T07:48:39;12.80;62.30
77039;DHT22;65970;50.476;4.840;2023-05-02T07:53:40;12.80;63.10
77039;DHT22;65970;50.476;4.840;2023-05-02T07:58:40;12.80;63.30
77039;DHT22;65970;50.476;4.840;2023-05-02T08:03:41;12.90;64.60
77039;DHT22;65970;50.476;4.840;2023-05-02T08:19:02;12.90;61.40
77039;DHT22;65970;50.476;4.840;2023-05-02T08:24:03;12.90;62.70
77039;DHT22;65970;50.476;4.840;2023-05-02T08:29:03;12.90;62.70
77039;DHT22;65970;50.476;4.840;2023-05-02T08:34:04;13.00;62.50
77039;DHT22;65970;50.476;4.840;2023-05-02T08:39:04;13.20;61.40
77039;DHT22;65970;50.476;4.840;2023-05-02T08:44:05;13.30;58.40
77039;DHT22;65970;50.476;4.840;2023-05-02T08:49:06;13.40;55.30
77039;DHT22;65970;50.476;4.840;2023-05-02T08:59:17;13.50;55.30
77039;DHT22;65970;50.476;4.840;2023-05-02T09:04:22;13.50;56.00
77039;DHT22;65970;50.476;4.840;2023-05-02T09:14:33;13.70;55.10
77039;DHT22;65970;50.476;4.840;2023-05-02T09:19:34;13.80;54.80
77039;DHT22;65970;50.476;4.840;2023-05-02T09:24:34;13.90;55.60
77039;DHT22;65970;50.476;4.840;2023-05-02T09:29:37;14.00;53.20
77039;DHT22;65970;50.476;4.840;2023-05-02T09:34:37;14.10;52.70
77039;DHT22;65970;50.476;4.840;2023-05-02T09:39:38;14.10;51.00
77039;DHT22;65970;50.476;4.840;2023-05-02T09:44:38;14.20;51.10
77039;DHT22;65970;50.476;4.840;2023-05-02T09:49:43;14.40;49.60
77039;DHT22;65970;50.476;4.840;2023-05-02T09:54:44;14.40;49.50
77039;DHT22;65970;50.476;4.840;2023-05-02T09:59:54;14.40;50.90
77039;DHT22;65970;50.476;4.840;2023-05-02T10:04:55;14.50;48.10
77039;DHT22;65970;50.476;4.840;2023-05-02T10:09:56;14.70;50.80
77039;DHT22;65970;50.476;4.840;2023-05-02T10:14:59;15.00;49.90
77039;DHT22;65970;50.476;4.840;2023-05-02T10:20:00;15.30;46.10
77039;DHT22;65970;50.476;4.840;2023-05-02T10:25:03;15.50;43.00
77039;DHT22;65970;50.476;4.840;2023-05-02T10:30:04;15.70;44.40
77039;DHT22;65970;50.476;4.840;2023-05-02T10:35:05;16.40;43.80
77039;DHT22;65970;50.476;4.840;2023-05-02T11:06:24;18.10;33.10
77039;DHT22;65970;50.476;4.840;2023-05-02T11:11:41;18.30;33.90
77039;DHT22;65970;50.476;4.840;2023-05-02T11:27:49;18.20;31.80
77039;DHT22;65970;50.476;4.840;2023-05-02T11:37:51;18.00;30.00
77039;DHT22;65970;50.476;4.840;2023-05-02T11:42:52;17.90;29.40
77039;DHT22;65970;50.476;4.840;2023-05-02T11:47:52;17.90;31.30
77039;DHT22;65970;50.476;4.840;2023-05-02T11:52:53;18.20;30.60
77039;DHT22;65970;50.476;4.840;2023-05-02T11:57:53;18.10;28.50
77039;DHT22;65970;50.476;4.840;2023-05-02T12:02:54;18.00;28.20
77039;DHT22;65970;50.476;4.840;2023-05-02T12:07:55;18.40;32.10
77039;DHT22;65970;50.476;4.840;2023-05-02T12:13:02;19.10;29.50
77039;DHT22;65970;50.476;4.840;2023-05-02T12:18:03;19.40;27.30
77039;DHT22;65970;50.476;4.840;2023-05-02T12:23:04;19.30;25.00
77039;DHT22;65970;50.476;4.840;2023-05-02T12:28:04;19.30;25.20
77039;DHT22;65970;50.476;4.840;2023-05-02T12:33:05;19.40;24.10
77039;DHT22;65970;50.476;4.840;2023-05-02T12:38:07;19.20;24.40
77039;DHT22;65970;50.476;4.840;2023-05-02T12:43:07;19.20;25.80
77039;DHT22;65970;50.476;4.840;2023-05-02T12:48:17;19.30;25.20
77039;DHT22;65970;50.476;4.840;2023-05-02T12:53:36;19.50;25.30
77039;DHT22;65970;50.476;4.840;2023-05-02T12:58:44;19.50;21.30
77039;DHT22;65970;50.476;4.840;2023-05-02T13:03:44;19.40;19.50
77039;DHT22;65970;50.476;4.840;2023-05-02T13:08:45;19.20;20.40
77039;DHT22;65970;50.476;4.840;2023-05-02T13:13:45;19.00;21.30
77039;DHT22;65970;50.476;4.840;2023-05-02T13:18:45;18.80;22.70
77039;DHT22;65970;50.476;4.840;2023-05-02T13:23:46;18.60;21.90
77039;DHT22;65970;50.476;4.840;2023-05-02T13:28:47;18.50;20.80
77039;DHT22;65970;50.476;4.840;2023-05-02T13:33:47;18.40;22.50
77039;DHT22;65970;50.476;4.840;2023-05-02T13:38:48;18.30;23.20
77039;DHT22;65970;50.476;4.840;2023-05-02T13:43:48;18.20;23.00
77039;DHT22;65970;50.476;4.840;2023-05-02T13:48:49;18.20;22.60
77039;DHT22;65970;50.476;4.840;2023-05-02T13:53:49;18.20;22.90
77039;DHT22;65970;50.476;4.840;2023-05-02T14:04:00;18.10;21.50
77039;DHT22;65970;50.476;4.840;2023-05-02T14:09:00;18.20;23.30
77039;DHT22;65970;50.476;4.840;2023-05-02T14:14:01;18.10;23.40
77039;DHT22;65970;50.476;4.840;2023-05-02T14:19:01;18.20;23.30
77039;DHT22;65970;50.476;4.840;2023-05-02T14:24:02;18.20;22.00
77039;DHT22;65970;50.476;4.840;2023-05-02T14:29:02;18.20;21.90
77039;DHT22;65970;50.476;4.840;2023-05-02T14:34:02;18.20;21.30
77039;DHT22;65970;50.476;4.840;2023-05-02T14:39:03;18.10;21.30
77039;DHT22;65970;50.476;4.840;2023-05-02T14:44:03;18.00;22.20
77039;DHT22;65970;50.476;4.840;2023-05-02T14:49:04;18.00;21.50
77039;DHT22;65970;50.476;4.840;2023-05-02T14:54:04;18.00;20.60
77039;DHT22;65970;50.476;4.840;2023-05-02T15:04:15;17.90;22.20
77039;DHT22;65970;50.476;4.840;2023-05-02T15:09:16;17.80;21.90
77039;DHT22;65970;50.476;4.840;2023-05-02T15:14:16;17.80;21.00
77039;DHT22;65970;50.476;4.840;2023-05-02T15:19:17;17.60;19.60
77039;DHT22;65970;50.476;4.840;2023-05-02T15:24:17;17.50;20.10
77039;DHT22;65970;50.476;4.840;2023-05-02T15:29:18;17.40;20.60
77039;DHT22;65970;50.476;4.840;2023-05-02T15:34:18;17.30;19.30
77039;DHT22;65970;50.476;4.840;2023-05-02T15:39:19;17.20;19.40
77039;DHT22;65970;50.476;4.840;2023-05-02T15:44:19;17.20;19.60
77039;DHT22;65970;50.476;4.840;2023-05-02T15:49:20;17.20;21.50
77039;DHT22;65970;50.476;4.840;2023-05-02T15:59:29;17.10;20.40
77039;DHT22;65970;50.476;4.840;2023-05-02T16:04:30;17.00;20.10
77039;DHT22;65970;50.476;4.840;2023-05-02T16:09:30;17.00;21.90
77039;DHT22;65970;50.476;4.840;2023-05-02T16:14:30;17.00;21.30
77039;DHT22;65970;50.476;4.840;2023-05-02T16:19:31;16.90;20.70
77039;DHT22;65970;50.476;4.840;2023-05-02T16:24:32;16.80;21.00
77039;DHT22;65970;50.476;4.840;2023-05-02T16:29:32;16.80;21.00
77039;DHT22;65970;50.476;4.840;2023-05-02T16:34:33;16.70;21.60
77039;DHT22;65970;50.476;4.840;2023-05-02T16:39:33;16.70;22.00
77039;DHT22;65970;50.476;4.840;2023-05-02T16:44:33;16.60;20.50
77039;DHT22;65970;50.476;4.840;2023-05-02T16:49:34;16.50;21.20
77039;DHT22;65970;50.476;4.840;2023-05-02T16:54:34;16.50;21.80
77039;DHT22;65970;50.476;4.840;2023-05-02T16:59:35;16.50;21.10
77039;DHT22;65970;50.476;4.840;2023-05-02T17:04:35;16.50;21.30
77039;DHT22;65970;50.476;4.840;2023-05-02T17:09:36;16.30;19.50
77039;DHT22;65970;50.476;4.840;2023-05-02T17:14:37;16.20;20.40
77039;DHT22;65970;50.476;4.840;2023-05-02T17:19:37;16.10;20.00
77039;DHT22;65970;50.476;4.840;2023-05-02T17:24:38;16.10;19.40
77039;DHT22;65970;50.476;4.840;2023-05-02T17:29:38;16.00;20.00
77039;DHT22;65970;50.476;4.840;2023-05-02T17:34:39;15.90;19.30
77039;DHT22;65970;50.476;4.840;2023-05-02T17:39:39;15.90;20.30
77039;DHT22;65970;50.476;4.840;2023-05-02T17:44:39;15.80;19.20
77039;DHT22;65970;50.476;4.840;2023-05-02T17:49:40;15.70;21.60
77039;DHT22;65970;50.476;4.840;2023-05-02T17:54:40;15.70;21.00
77039;DHT22;65970;50.476;4.840;2023-05-02T17:59:41;15.60;20.30
77039;DHT22;65970;50.476;4.840;2023-05-02T18:04:41;15.50;20.00
77039;DHT22;65970;50.476;4.840;2023-05-02T18:09:42;15.40;19.90
77039;DHT22;65970;50.476;4.840;2023-05-02T18:14:42;15.30;19.20
77039;DHT22;65970;50.476;4.840;2023-05-02T18:19:42;15.20;20.50
77039;DHT22;65970;50.476;4.840;2023-05-02T18:24:43;15.20;20.50
77039;DHT22;65970;50.476;4.840;2023-05-02T18:29:43;15.10;20.30
77039;DHT22;65970;50.476;4.840;2023-05-02T18:34:44;15.00;21.00
77039;DHT22;65970;50.476;4.840;2023-05-02T18:39:44;15.00;23.60
77039;DHT22;65970;50.476;4.840;2023-05-02T18:44:45;14.90;22.80
77039;DHT22;65970;50.476;4.840;2023-05-02T18:49:45;14.80;22.00
77039;DHT22;65970;50.476;4.840;2023-05-02T18:54:45;14.70;21.80
77039;DHT22;65970;50.476;4.840;2023-05-02T18:59:46;14.60;23.00
77039;DHT22;65970;50.476;4.840;2023-05-02T19:04:46;14.60;22.50
77039;DHT22;65970;50.476;4.840;2023-05-02T19:09:47;14.50;23.30
77039;DHT22;65970;50.476;4.840;2023-05-02T19:14:47;14.40;22.80
77039;DHT22;65970;50.476;4.840;2023-05-02T19:19:49;14.30;23.00
77039;DHT22;65970;50.476;4.840;2023-05-02T19:24:49;14.20;22.70
77039;DHT22;65970;50.476;4.840;2023-05-02T19:29:52;14.10;23.20
77039;DHT22;65970;50.476;4.840;2023-05-02T19:34:53;14.10;23.70
77039;DHT22;65970;50.476;4.840;2023-05-02T19:39:53;14.00;23.90
77039;DHT22;65970;50.476;4.840;2023-05-02T19:44:54;13.90;24.40
77039;DHT22;65970;50.476;4.840;2023-05-02T19:49:54;13.90;25.00
77039;DHT22;65970;50.476;4.840;2023-05-02T19:54:55;13.80;26.40
77039;DHT22;65970;50.476;4.840;2023-05-02T19:59:55;13.70;24.20
77039;DHT22;65970;50.476;4.840;2023-05-02T20:10:06;13.60;25.10
77039;DHT22;65970;50.476;4.840;2023-05-02T20:15:07;13.50;25.20
77039;DHT22;65970;50.476;4.840;2023-05-02T20:20:10;13.40;25.70
77039;DHT22;65970;50.476;4.840;2023-05-02T20:25:10;13.40;25.60
77039;DHT22;65970;50.476;4.840;2023-05-02T20:30:11;13.30;26.30
77039;DHT22;65970;50.476;4.840;2023-05-02T20:35:12;13.30;26.30
77039;DHT22;65970;50.476;4.840;2023-05-02T20:40:12;13.20;25.80
77039;DHT22;65970;50.476;4.840;2023-05-02T20:45:12;13.20;26.40
77039;DHT22;65970;50.476;4.840;2023-05-02T20:50:13;13.10;27.10
77039;DHT22;65970;50.476;4.840;2023-05-02T20:55:13;13.10;26.10
77039;DHT22;65970;50.476;4.840;2023-05-02T21:00:14;13.00;26.00
77039;DHT22;65970;50.476;4.840;2023-05-02T21:05:15;13.00;28.20
77039;DHT22;65970;50.476;4.840;2023-05-02T21:10:17;12.90;26.30
77039;DHT22;65970;50.476;4.840;2023-05-02T21:15:17;12.80;25.70
77039;DHT22;65970;50.476;4.840;2023-05-02T21:20:18;12.70;26.10
77039;DHT22;65970;50.476;4.840;2023-05-02T21:25:18;12.70;26.70
77039;DHT22;65970;50.476;4.840;2023-05-02T21:30:21;12.60;26.70
77039;DHT22;65970;50.476;4.840;2023-05-02T21:35:22;12.50;26.80
77039;DHT22;65970;50.476;4.840;2023-05-02T21:40:22;12.60;27.70
77039;DHT22;65970;50.476;4.840;2023-05-02T21:45:24;12.40;25.80
77039;DHT22;65970;50.476;4.840;2023-05-02T21:50:25;12.40;27.10
77039;DHT22;65970;50.476;4.840;2023-05-02T21:55:25;12.40;25.90
77039;DHT22;65970;50.476;4.840;2023-05-02T22:00:26;12.30;25.30
77039;DHT22;65970;50.476;4.840;2023-05-02T22:05:26;12.20;25.80
77039;DHT22;65970;50.476;4.840;2023-05-02T22:10:27;12.20;27.30
77039;DHT22;65970;50.476;4.840;2023-05-02T22:15:28;12.10;26.00
77039;DHT22;65970;50.476;4.840;2023-05-02T22:20:28;12.10;25.00
77039;DHT22;65970;50.476;4.840;2023-05-02T22:25:29;12.00;24.90
77039;DHT22;65970;50.476;4.840;2023-05-02T22:30:29;11.90;25.30
77039;DHT22;65970;50.476;4.840;2023-05-02T22:35:30;11.90;24.30
77039;DHT22;65970;50.476;4.840;2023-05-02T22:40:31;11.90;26.50
77039;DHT22;65970;50.476;4.840;2023-05-02T22:45:32;11.80;27.00
77039;DHT22;65970;50.476;4.840;2023-05-02T22:50:32;11.80;27.90
77039;DHT22;65970;50.476;4.840;2023-05-02T22:55:32;11.70;26.20
77039;DHT22;65970;50.476;4.840;2023-05-02T23:00:35;11.60;26.60
77039;DHT22;65970;50.476;4.840;2023-05-02T23:05:36;11.70;27.30
77039;DHT22;65970;50.476;4.840;2023-05-02T23:10:36;11.60;27.00
77039;DHT22;65970;50.476;4.840;2023-05-02T23:15:37;11.50;26.40
77039;DHT22;65970;50.476;4.840;2023-05-02T23:20:37;11.40;28.10
77039;DHT22;65970;50.476;4.840;2023-05-02T23:25:37;11.40;27.60
77039;DHT22;65970;50.476;4.840;2023-05-02T23:30:38;11.30;27.30
77039;DHT22;65970;50.476;4.840;2023-05-02T23:35:39;11.30;26.20
77039;DHT22;65970;50.476;4.840;2023-05-02T23:40:42;11.30;27.10
77039;DHT22;65970;50.476;4.840;2023-05-02T23:45:46;11.20;26.50
77039;DHT22;65970;50.476;4.840;2023-05-02T23:50:46;11.10;27.60
77039;DHT22;65970;50.476;4.840;2023-05-02T23:55:47;11.10;26.90
